Terminal Aerodrome Forecast
Issued by NWS

Home | Current Version | Previous Version | Text Only | Print | Product List | Glossary On
Versions: 1 2 3 4 5 6 7 8 9 10 11 12 13 14 15 16 17 18 19 20 21 22
000
FTUS43 KDLH 221100
TAFHIB
TAF
KHIB 221136Z 2212/2312 15010KT P6SM SKC
     FM221600 16010G18KT P6SM FEW120
     FM222000 16012G24KT P6SM SCT050 BKN080
     FM230000 17008KT P6SM VCSH BKN035 OVC050
     FM230800 18010KT 6SM -RA SCT010 OVC025=

USA.gov is the U.S. government's official web portal to all federal, state and local government web resources and services.